createdAt,value
2022-11-25T00:00:23.345Z,90.18
2022-11-25T00:05:46.689Z,89.38
2022-11-25T00:10:51.937Z,92.03
2022-11-25T00:15:55.415Z,85.75
2022-11-25T00:20:58.786Z,82.72
2022-11-25T00:26:09.397Z,86.78
2022-11-25T00:31:15.975Z,80.63
2022-11-25T00:36:21.880Z,82.53
2022-11-25T00:41:44.759Z,87.63
2022-11-25T00:46:48.445Z,84.97
2022-11-25T00:51:52.086Z,81.25
2022-11-25T00:56:57.115Z,88.82
2022-11-25T01:02:00.968Z,83.38
2022-11-25T01:07:04.436Z,85.15
2022-11-25T01:12:09.439Z,79.93
2022-11-25T01:17:12.848Z,92.75
2022-11-25T01:22:16.206Z,82.65
2022-11-25T01:27:20.937Z,75.53
2022-11-25T01:32:26.352Z,83.20
2022-11-25T01:37:29.779Z,82.60
2022-11-25T01:42:34.513Z,78.15
2022-11-25T01:47:37.906Z,75.43
2022-11-25T01:52:47.022Z,68.93
2022-11-25T01:57:55.557Z,72.00
2022-11-25T02:03:02.529Z,74.80
2022-11-25T02:08:08.125Z,70.75
2022-11-25T02:13:13.250Z,82.70
2022-11-25T02:18:16.901Z,73.90
2022-11-25T02:23:28.889Z,90.15
2022-11-25T02:28:34.234Z,85.15
2022-11-25T02:33:37.826Z,84.00
2022-11-25T02:38:45.249Z,93.03
2022-11-25T02:43:50.066Z,90.07
2022-11-25T02:49:11.005Z,77.13
2022-11-25T02:54:16.014Z,80.43
2022-11-25T02:59:20.760Z,75.35
2022-11-25T03:04:24.260Z,90.22
2022-11-25T03:09:27.800Z,82.82
2022-11-25T03:14:32.985Z,82.97
2022-11-25T03:19:36.544Z,81.10
2022-11-25T03:24:39.988Z,76.68
2022-11-25T03:29:44.864Z,80.05
2022-11-25T03:34:48.253Z,82.30
2022-11-25T03:39:51.788Z,75.75
2022-11-25T03:44:56.648Z,75.38
2022-11-25T03:50:00.683Z,78.75
2022-11-25T03:55:04.624Z,73.90
2022-11-25T04:00:10.886Z,73.35
2022-11-25T04:05:14.328Z,70.15
2022-11-25T04:10:17.863Z,73.15
2022-11-25T04:15:22.700Z,73.88
2022-11-25T04:20:26.162Z,73.45
2022-11-25T04:25:29.877Z,71.15
2022-11-25T04:30:34.851Z,66.30
2022-11-25T04:35:38.357Z,66.63
2022-11-25T04:40:41.781Z,55.97
2022-11-25T04:51:12.057Z,65.43
2022-11-25T04:56:18.683Z,64.88
2022-11-25T05:01:23.540Z,65.28
2022-11-25T05:06:27.077Z,63.50
2022-11-25T05:11:30.482Z,62.47
2022-11-25T05:16:35.516Z,62.42
2022-11-25T05:21:38.963Z,64.30
2022-11-25T05:26:42.349Z,63.75
2022-11-25T05:31:47.479Z,66.97
2022-11-25T05:36:51.965Z,67.80
2022-11-25T05:41:55.394Z,68.45
2022-11-25T05:47:00.125Z,70.38
2022-11-25T05:52:03.702Z,76.13
2022-11-25T05:57:08.332Z,80.63
2022-11-25T06:02:13.150Z,78.00
2022-11-25T06:07:16.923Z,81.78
2022-11-25T06:12:22.114Z,73.50
2022-11-25T06:17:26.892Z,78.47
2022-11-25T06:22:30.364Z,82.50
2022-11-25T06:27:50.415Z,78.78
2022-11-25T06:32:59.582Z,77.95
2022-11-25T06:38:03.450Z,76.00
2022-11-25T06:43:07.198Z,79.10
2022-11-25T06:48:12.044Z,75.55
2022-11-25T06:53:19.910Z,76.75
2022-11-25T06:58:35.912Z,72.72
2022-11-25T07:03:41.565Z,78.57
2022-11-25T07:08:45.614Z,72.82
2022-11-25T07:13:52.333Z,71.45
2022-11-25T07:18:57.686Z,71.57
2022-11-25T07:24:02.946Z,71.35
2022-11-25T07:29:23.495Z,76.78
2022-11-25T07:34:33.333Z,62.10
2022-11-25T07:39:37.183Z,73.95
2022-11-25T07:44:40.991Z,73.25
2022-11-25T07:49:45.824Z,87.95
2022-11-25T07:54:49.920Z,84.75
2022-11-25T07:59:53.388Z,72.40
2022-11-25T08:04:58.125Z,68.88
2022-11-25T08:10:01.696Z,68.75
2022-11-25T08:15:06.777Z,69.10
2022-11-25T08:20:12.184Z,73.53
2022-11-25T08:25:16.151Z,64.43
2022-11-25T08:30:21.481Z,64.78
2022-11-25T08:35:26.867Z,68.30
2022-11-25T08:40:30.409Z,64.85
2022-11-25T08:45:35.093Z,64.43
2022-11-25T08:50:40.420Z,64.22
2022-11-25T08:55:44.104Z,73.90
2022-11-25T09:00:47.541Z,70.50
2022-11-25T09:19:36.300Z,45.30
2022-11-25T09:24:41.734Z,48.75
2022-11-25T09:29:45.081Z,47.35
2022-11-25T09:34:50.201Z,53.67
2022-11-25T09:39:56.088Z,47.38
2022-11-25T09:45:39.972Z,40.28
2022-11-25T09:50:54.889Z,40.27
2022-11-25T09:56:04.466Z,50.92
2022-11-25T10:01:15.026Z,39.55
2022-11-25T10:06:23.739Z,50.22
2022-11-25T10:11:36.042Z,34.38
2022-11-25T10:16:51.430Z,39.67
2022-11-25T10:21:56.641Z,33.40
2022-11-25T10:27:06.019Z,35.08
2022-11-25T10:32:23.188Z,45.35
2022-11-25T10:37:31.693Z,41.40
2022-11-25T10:42:37.038Z,37.45
2022-11-25T10:47:57.255Z,34.13
2022-11-25T10:53:12.106Z,33.08
2022-11-25T10:58:27.524Z,35.55
2022-11-25T11:03:31.076Z,34.28
2022-11-25T11:08:40.456Z,31.13
2022-11-25T11:13:44.364Z,29.85
2022-11-25T11:18:48.887Z,29.88
2022-11-25T11:23:55.330Z,27.50
2022-11-25T11:29:01.457Z,25.80
2022-11-25T11:34:19.628Z,30.20
2022-11-25T11:39:59.996Z,28.55
2022-11-25T11:45:15.927Z,25.88
2022-11-25T11:50:32.784Z,29.10
2022-11-25T11:56:00.305Z,32.65
2022-11-25T12:01:26.492Z,29.83
2022-11-25T12:06:33.857Z,32.67
2022-11-25T12:11:43.984Z,35.22
2022-11-25T12:16:51.761Z,29.08
2022-11-25T12:21:59.889Z,28.08
2022-11-25T12:27:09.935Z,29.23
2022-11-25T12:32:52.275Z,26.50
2022-11-25T12:38:03.302Z,28.70
2022-11-25T12:43:18.703Z,28.35
2022-11-25T12:48:22.194Z,29.25
2022-11-25T12:53:37.782Z,27.92
2022-11-25T12:59:03.529Z,28.33
2022-11-25T13:04:32.920Z,32.33
2022-11-25T13:09:51.223Z,26.13
2022-11-25T13:15:19.371Z,27.95
2022-11-25T13:20:38.155Z,25.48
2022-11-25T13:25:43.705Z,26.60
2022-11-25T13:30:51.996Z,24.42
2022-11-25T13:35:56.685Z,26.88
2022-11-25T13:41:01.544Z,18.85
2022-11-25T13:46:07.051Z,22.02
2022-11-25T13:51:19.773Z,20.75
2022-11-25T13:56:29.872Z,25.27
2022-11-25T14:01:34.637Z,18.35
2022-11-25T14:07:06.950Z,21.77
2022-11-25T14:12:43.209Z,15.05
2022-11-25T14:18:31.472Z,15.90
2022-11-25T14:24:16.388Z,17.10
2022-11-25T14:29:24.648Z,18.42
2022-11-25T14:34:35.202Z,19.25
2022-11-25T14:39:44.415Z,20.15
2022-11-25T14:44:49.901Z,18.92
2022-11-25T14:50:18.925Z,21.85
2022-11-25T14:55:29.469Z,24.08
2022-11-25T15:00:32.928Z,24.63
2022-11-25T15:05:41.032Z,22.98
2022-11-25T15:10:51.660Z,31.52
2022-11-25T15:15:56.696Z,32.63
2022-11-25T15:21:03.051Z,41.97
2022-11-25T15:26:16.525Z,32.33
2022-11-25T15:31:21.899Z,32.47
2022-11-25T15:36:27.378Z,34.05
2022-11-25T15:41:34.569Z,29.08
2022-11-25T15:46:39.221Z,22.00
2022-11-25T15:51:49.769Z,29.85
2022-11-25T15:56:55.399Z,30.80
2022-11-25T16:01:58.867Z,30.45
2022-11-25T16:07:05.043Z,35.42
2022-11-25T16:12:17.735Z,34.13
2022-11-25T16:17:21.137Z,39.13
2022-11-25T16:22:26.521Z,44.72
2022-11-25T16:27:31.322Z,50.40
2022-11-25T16:32:35.188Z,47.67
2022-11-25T16:37:41.805Z,44.35
2022-11-25T16:42:51.713Z,45.67
2022-11-25T16:47:55.479Z,42.42
2022-11-25T16:53:01.497Z,45.55
2022-11-25T16:58:09.675Z,41.85
2022-11-25T17:03:13.835Z,52.65
2022-11-25T17:08:18.736Z,50.80
2022-11-25T17:13:24.495Z,49.60
2022-11-25T17:18:28.227Z,53.78
2022-11-25T17:23:32.956Z,49.08
2022-11-25T17:28:36.746Z,46.30
2022-11-25T17:33:42.861Z,40.08
2022-11-25T17:38:47.548Z,30.85
2022-11-25T17:43:53.285Z,28.60
2022-11-25T17:48:57.088Z,25.45
2022-11-25T17:54:01.860Z,27.27
2022-11-25T17:59:11.278Z,22.67
2022-11-25T18:04:23.108Z,20.52
2022-11-25T18:09:28.252Z,21.92
2022-11-25T18:14:36.028Z,23.83
2022-11-25T18:19:39.850Z,27.48
2022-11-25T18:24:46.147Z,28.98
2022-11-25T18:29:49.768Z,28.20
2022-11-25T18:34:53.322Z,26.67
2022-11-25T18:39:58.178Z,29.33
2022-11-25T18:45:01.868Z,35.45
2022-11-25T18:50:14.147Z,39.47
2022-11-25T18:55:21.160Z,53.88
2022-11-25T19:00:33.353Z,59.30
2022-11-25T19:05:37.114Z,51.30
2022-11-25T19:10:44.244Z,46.60
2022-11-25T19:15:48.270Z,45.35
2022-11-25T19:20:51.868Z,44.60
2022-11-25T19:26:01.004Z,40.30
2022-11-25T19:31:06.178Z,46.35
2022-11-25T19:36:17.151Z,44.72
2022-11-25T19:41:22.607Z,49.08
2022-11-25T19:46:33.079Z,51.08
2022-11-25T19:51:40.762Z,49.60
2022-11-25T19:56:46.658Z,66.25
2022-11-25T20:01:50.149Z,71.80
2022-11-25T20:06:53.872Z,73.82
2022-11-25T20:12:06.957Z,80.88
2022-11-25T20:17:18.502Z,78.47
2022-11-25T20:22:26.998Z,77.93
2022-11-25T20:27:32.157Z,82.18
2022-11-25T20:32:35.556Z,73.38
2022-11-25T20:37:50.968Z,82.70
2022-11-25T20:42:56.170Z,80.88
2022-11-25T20:47:59.548Z,69.50
2022-11-25T20:53:04.301Z,78.57
2022-11-25T20:58:19.386Z,82.95
2022-11-25T21:03:23.105Z,79.57
2022-11-25T21:08:30.139Z,82.10
2022-11-25T21:13:35.738Z,86.15
2022-11-25T21:18:39.950Z,75.03
2022-11-25T21:23:45.264Z,76.68
2022-11-25T21:28:52.925Z,71.93
2022-11-25T21:33:59.453Z,67.10
2022-11-25T21:39:05.954Z,68.38
2022-11-25T21:44:21.510Z,77.10
2022-11-25T21:49:26.107Z,69.72
2022-11-25T21:54:29.546Z,77.78
2022-11-25T21:59:34.308Z,76.00
2022-11-25T22:04:37.927Z,68.72
2022-11-25T22:09:42.010Z,77.05
2022-11-25T22:14:47.150Z,78.38
2022-11-25T22:19:50.901Z,85.88
2022-11-25T22:24:54.342Z,80.80
2022-11-25T22:29:59.473Z,85.60
2022-11-25T22:35:02.865Z,88.90
2022-11-25T22:40:08.348Z,90.38
2022-11-25T22:45:19.657Z,95.35
2022-11-25T22:50:27.374Z,91.75
2022-11-25T22:55:32.606Z,95.95
2022-11-25T23:00:40.869Z,116.95
2022-11-25T23:05:44.409Z,115.68
2022-11-25T23:10:49.122Z,94.50
2022-11-25T23:15:56.268Z,123.90
2022-11-25T23:20:59.879Z,115.45
2022-11-25T23:26:03.254Z,87.50
2022-11-25T23:31:08.328Z,78.07
2022-11-25T23:36:15.192Z,78.45
2022-11-25T23:41:21.857Z,81.75
2022-11-25T23:46:33.902Z,74.95
2022-11-25T23:51:37.609Z,87.63
2022-11-25T23:56:40.994Z,89.38
